Time;durP1;ratioP1;P1;durP2;ratioP2;P2;SDS_P1;SDS_P2;PMS_P1;PMS_P2;Temp;Humidity;BMP_temperature;BMP_pressure;BME280_temperature;BME280_humidity;BME280_pressure;Samples;Min_cycle;Max_cycle;Signal;HPM_P1;HPM_P2
2022/01/13 00:01:25;;;;;;;182.20;30.92;;;4.90;99.90;;;;;;5077141;28;20033;-42
2022/01/13 00:03:51;;;;;;;211.48;31.98;;;4.90;99.90;;;;;;5079350;28;20445;-42
2022/01/13 00:06:17;;;;;;;169.13;26.95;;;4.90;99.90;;;;;;5081452;28;20086;-42
2022/01/13 00:08:43;;;;;;;166.77;26.33;;;4.90;99.90;;;;;;5060241;28;20467;-41
2022/01/13 00:11:09;;;;;;;168.80;30.17;;;4.90;99.90;;;;;;5078445;28;20032;-41
2022/01/13 00:13:47;;;;;;;164.90;29.55;;;4.90;99.90;;;;;;5076790;28;20067;-41
2022/01/13 00:16:27;;;;;;;153.68;27.00;;;4.90;99.90;;;;;;5078594;28;20041;-43
2022/01/13 00:19:05;;;;;;;159.75;28.45;;;4.90;99.90;;;;;;5058984;28;20032;-41
2022/01/13 00:21:40;;;;;;;160.98;29.52;;;4.90;99.90;;;;;;5045699;28;20044;-41
2022/01/13 00:24:11;;;;;;;166.90;29.98;;;4.90;99.90;;;;;;5073767;28;20052;-41
2022/01/13 00:26:37;;;;;;;142.45;28.67;;;4.90;99.90;;;;;;5057744;28;20434;-42
2022/01/13 00:29:03;;;;;;;146.23;26.83;;;4.90;99.90;;;;;;5060010;28;20057;-41
2022/01/13 00:31:33;;;;;;;125.03;26.42;;;4.90;99.90;;;;;;5069952;28;20045;-42
2022/01/13 00:34:08;;;;;;;135.05;25.70;;;4.90;99.90;;;;;;5072782;28;20021;-42
2022/01/13 00:36:37;;;;;;;145.40;27.42;;;4.90;99.90;;;;;;5055084;28;20124;-41
2022/01/13 00:39:06;;;;;;;135.52;25.73;;;4.90;99.90;;;;;;5068384;28;20090;-41
2022/01/13 00:41:32;;;;;;;151.35;26.15;;;4.80;99.90;;;;;;5070803;28;20059;-41
2022/01/13 00:44:00;;;;;;;173.07;30.30;;;4.80;99.90;;;;;;5074876;28;20029;-41
2022/01/13 00:46:30;;;;;;;151.18;28.95;;;4.80;99.90;;;;;;5059321;28;20040;-42
2022/01/13 00:48:56;;;;;;;124.22;25.25;;;4.90;99.90;;;;;;5072736;28;20061;-45
2022/01/13 00:51:24;;;;;;;142.07;26.67;;;4.90;99.90;;;;;;5078379;28;20056;-42
2022/01/13 00:53:51;;;;;;;132.85;26.67;;;4.90;99.90;;;;;;5074578;28;20017;-41
2022/01/13 00:56:18;;;;;;;122.88;27.48;;;4.80;99.90;;;;;;5074960;28;20049;-42
2022/01/13 00:58:44;;;;;;;207.75;33.50;;;4.90;99.90;;;;;;5076379;28;20084;-41
2022/01/13 01:01:10;;;;;;;114.50;25.85;;;4.80;99.90;;;;;;5073200;28;20036;-42
2022/01/13 01:03:37;;;;;;;156.55;29.83;;;4.80;99.90;;;;;;5072994;28;20052;-44
2022/01/13 01:06:04;;;;;;;150.43;29.10;;;4.80;99.90;;;;;;5073477;28;20421;-42
2022/01/13 01:08:32;;;;;;;152.63;29.35;;;4.80;99.90;;;;;;5069931;28;20025;-42
2022/01/13 01:11:01;;;;;;;128.05;27.23;;;4.80;99.90;;;;;;5076868;28;20593;-43
2022/01/13 01:13:29;;;;;;;187.43;33.20;;;4.90;99.90;;;;;;5042694;28;20040;-42
2022/01/13 01:15:59;;;;;;;171.65;32.05;;;4.80;99.90;;;;;;5075404;28;20088;-41
2022/01/13 01:29:00;;;;;;;152.93;30.98;;;4.90;99.90;;;;;;5074625;28;20040;-42
2022/01/13 01:31:30;;;;;;;126.68;28.10;;;4.90;99.90;;;;;;5071291;28;20059;-42
2022/01/13 01:34:26;;;;;;;127.93;29.70;;;4.90;99.90;;;;;;5075291;28;20391;-42
2022/01/13 01:36:52;;;;;;;128.70;29.20;;;4.90;99.90;;;;;;5070216;28;20029;-42
2022/01/13 01:39:18;;;;;;;104.13;26.85;;;4.90;99.90;;;;;;5063306;28;20079;-45
2022/01/13 01:41:48;;;;;;;108.00;26.60;;;4.80;99.90;;;;;;5074941;28;20056;-42
2022/01/13 01:44:19;;;;;;;97.70;24.95;;;4.80;99.90;;;;;;5073964;28;20025;-43
2022/01/13 01:46:46;;;;;;;109.22;26.58;;;4.80;99.90;;;;;;5078809;28;20103;-43
2022/01/13 01:49:25;;;;;;;104.45;26.33;;;4.90;99.90;;;;;;5072062;28;20024;-42
2022/01/13 01:51:54;;;;;;;116.28;26.55;;;4.80;99.90;;;;;;5072258;28;20016;-41
2022/01/13 01:54:20;;;;;;;118.40;27.90;;;4.80;99.90;;;;;;5073011;28;20369;-42
2022/01/13 01:56:47;;;;;;;86.85;22.88;;;4.90;99.90;;;;;;5056855;28;20025;-42
2022/01/13 01:59:16;;;;;;;123.85;25.95;;;4.90;99.90;;;;;;5070963;28;20114;-43
2022/01/13 02:01:43;;;;;;;111.47;23.27;;;4.80;99.90;;;;;;5070696;28;20062;-41
2022/01/13 02:04:10;;;;;;;106.90;22.92;;;4.80;99.90;;;;;;5074131;28;20040;-41
2022/01/13 02:06:37;;;;;;;115.75;22.67;;;4.80;99.90;;;;;;5071131;28;20035;-43
2022/01/13 02:09:06;;;;;;;87.45;21.75;;;4.80;99.90;;;;;;5073779;28;20040;-41
2022/01/13 02:11:42;;;;;;;102.57;23.45;;;4.80;99.90;;;;;;5075058;28;20084;-40
2022/01/13 02:14:30;;;;;;;97.70;23.40;;;4.80;99.90;;;;;;5074626;28;20029;-40
2022/01/13 02:17:12;;;;;;;113.47;25.42;;;4.80;99.90;;;;;;5071814;28;20055;-39
2022/01/13 02:19:41;;;;;;;86.45;22.88;;;4.80;99.90;;;;;;5070634;28;20029;-46
2022/01/13 02:22:09;;;;;;;107.78;24.15;;;4.80;99.90;;;;;;5074379;28;20514;-40
2022/01/13 02:24:35;;;;;;;88.35;21.92;;;4.80;99.90;;;;;;5074246;28;20045;-39
2022/01/13 02:27:02;;;;;;;75.25;21.70;;;4.80;99.90;;;;;;5068536;28;20033;-40
2022/01/13 02:29:28;;;;;;;74.18;20.52;;;4.80;99.90;;;;;;5075638;28;20055;-40
2022/01/13 02:31:54;;;;;;;74.80;19.15;;;4.80;99.90;;;;;;5076689;28;20021;-39
2022/01/13 02:34:20;;;;;;;69.20;19.52;;;4.80;99.90;;;;;;5073910;28;20044;-40
2022/01/13 02:36:49;;;;;;;76.78;20.15;;;4.80;99.90;;;;;;5073031;28;20512;-39
2022/01/13 02:39:15;;;;;;;79.40;20.67;;;4.80;99.90;;;;;;5056149;28;20052;-40
2022/01/13 02:41:41;;;;;;;95.40;20.92;;;4.80;99.90;;;;;;5069604;28;20040;-43
2022/01/13 02:44:19;;;;;;;72.32;19.88;;;4.70;99.90;;;;;;5057361;28;20039;-41
2022/01/13 02:49:19;;;;;;;74.55;18.83;;;4.70;99.90;;;;;;5070921;28;20137;-40
2022/01/13 02:51:48;;;;;;;88.82;20.77;;;4.70;99.90;;;;;;5076165;28;20487;-40
2022/01/13 02:54:13;;;;;;;96.88;20.17;;;4.70;99.90;;;;;;5075918;28;20048;-40
2022/01/13 02:56:40;;;;;;;83.35;19.45;;;4.70;99.90;;;;;;5070104;28;20468;-39
2022/01/13 02:59:07;;;;;;;97.85;22.27;;;4.70;99.90;;;;;;5075289;28;20028;-40
2022/01/13 03:01:34;;;;;;;86.95;20.08;;;4.70;99.90;;;;;;5071970;28;20044;-40
2022/01/13 03:04:04;;;;;;;86.50;21.75;;;4.70;99.90;;;;;;5076858;28;20017;-40
2022/01/13 03:06:35;;;;;;;82.93;19.08;;;4.70;99.90;;;;;;5074662;28;20080;-40
2022/01/13 03:09:04;;;;;;;93.70;20.63;;;4.70;99.90;;;;;;5077719;28;20029;-41
2022/01/13 03:11:39;;;;;;;77.97;19.17;;;4.70;99.90;;;;;;5073043;28;20021;-40
2022/01/13 03:14:08;;;;;;;110.13;22.77;;;4.80;99.90;;;;;;5076181;28;20059;-41
2022/01/13 03:16:35;;;;;;;100.57;23.10;;;4.80;99.90;;;;;;5076684;28;20032;-40
2022/01/13 03:19:00;;;;;;;104.15;22.60;;;4.80;99.90;;;;;;5078652;28;20016;-39
2022/01/13 03:21:26;;;;;;;98.72;23.33;;;4.80;99.90;;;;;;5059828;28;20134;-40
2022/01/13 03:23:52;;;;;;;104.43;23.33;;;4.80;99.90;;;;;;5077334;28;20047;-40
2022/01/13 03:26:20;;;;;;;95.57;21.02;;;4.80;99.90;;;;;;5059957;28;20033;-40
2022/01/13 03:28:54;;;;;;;100.57;22.25;;;4.80;99.90;;;;;;5058698;28;20024;-40
2022/01/13 03:31:22;;;;;;;87.78;22.77;;;4.80;99.90;;;;;;5074273;28;20060;-40
2022/01/13 03:33:48;;;;;;;90.13;20.75;;;4.80;99.90;;;;;;5073193;28;20563;-40
2022/01/13 03:36:14;;;;;;;87.63;19.67;;;4.80;99.90;;;;;;5074500;28;20024;-40
2022/01/13 03:38:40;;;;;;;90.13;22.83;;;4.80;99.90;;;;;;5078467;28;20044;-39
2022/01/13 03:41:06;;;;;;;104.35;22.10;;;4.80;99.90;;;;;;5076268;28;20097;-39
2022/01/13 03:43:35;;;;;;;95.13;21.85;;;4.80;99.90;;;;;;5058277;28;20028;-41
2022/01/13 03:46:04;;;;;;;117.22;23.80;;;4.80;99.90;;;;;;5078823;28;20016;-39
2022/01/13 03:48:29;;;;;;;101.85;22.63;;;4.80;99.90;;;;;;5055233;28;20055;-39
2022/01/13 03:50:55;;;;;;;92.07;20.83;;;4.80;99.90;;;;;;5074059;28;20024;-39
2022/01/13 03:53:27;;;;;;;86.43;19.90;;;4.80;99.90;;;;;;5039053;28;20104;-39
2022/01/13 03:56:24;;;;;;;97.72;22.60;;;4.80;99.90;;;;;;5075544;28;20039;-39
2022/01/13 03:59:36;;;;;;;90.18;20.90;;;4.80;99.90;;;;;;5072361;28;20036;-39
2022/01/13 04:02:06;;;;;;;106.40;21.85;;;4.80;99.90;;;;;;5058358;28;20029;-40
2022/01/13 04:04:43;;;;;;;100.15;21.15;;;4.80;99.90;;;;;;5077431;28;20119;-39
2022/01/13 04:07:19;;;;;;;109.22;23.35;;;4.80;99.90;;;;;;5069608;28;20107;-40
2022/01/13 04:09:45;;;;;;;111.28;21.63;;;4.80;99.90;;;;;;5074940;28;20555;-39
2022/01/13 04:12:12;;;;;;;103.90;22.98;;;4.80;99.90;;;;;;5056725;28;20055;-39
2022/01/13 04:17:09;;;;;;;123.28;23.83;;;4.80;99.90;;;;;;5072156;28;20033;-40
2022/01/13 04:19:35;;;;;;;121.25;23.92;;;4.80;99.90;;;;;;5059158;28;20606;-39
2022/01/13 04:22:03;;;;;;;117.15;22.33;;;4.80;99.90;;;;;;5056714;28;20072;-39
2022/01/13 04:24:29;;;;;;;97.85;21.00;;;4.80;99.90;;;;;;5071340;28;20508;-39
2022/01/13 04:26:56;;;;;;;120.97;23.67;;;4.80;99.90;;;;;;5068396;28;20062;-39
2022/01/13 04:29:31;;;;;;;122.13;25.30;;;4.80;99.90;;;;;;5074785;28;20519;-39
2022/01/13 04:31:57;;;;;;;113.88;23.05;;;4.80;99.90;;;;;;5071312;28;20048;-39
2022/01/13 04:34:23;;;;;;;114.45;24.33;;;4.80;99.90;;;;;;5072833;28;20029;-39
2022/01/13 04:36:49;;;;;;;91.32;20.55;;;4.80;99.90;;;;;;5058518;28;20028;-40
2022/01/13 04:39:16;;;;;;;86.43;20.55;;;4.80;99.90;;;;;;5072163;28;20021;-40
2022/01/13 04:41:45;;;;;;;105.43;21.70;;;4.80;99.90;;;;;;5075422;28;20356;-39
2022/01/13 04:44:19;;;;;;;93.53;21.88;;;4.80;99.90;;;;;;5069421;28;20074;-40
2022/01/13 04:46:46;;;;;;;113.18;24.15;;;4.80;99.90;;;;;;5073923;28;20012;-40
2022/01/13 04:49:12;;;;;;;105.57;24.20;;;4.80;99.90;;;;;;5070897;28;20016;-39
2022/01/13 04:51:39;;;;;;;132.18;26.20;;;4.80;99.90;;;;;;5054603;28;20035;-39
2022/01/13 04:54:05;;;;;;;108.03;24.30;;;4.80;99.90;;;;;;5060325;28;20096;-39
2022/01/13 04:58:58;;;;;;;103.45;23.77;;;4.80;99.90;;;;;;5067701;28;20048;-42
2022/01/13 05:01:24;;;;;;;110.03;25.65;;;4.70;99.90;;;;;;5054702;28;20676;-39
2022/01/13 05:03:50;;;;;;;125.20;25.45;;;4.80;99.90;;;;;;5058834;28;20035;-40
2022/01/13 05:06:19;;;;;;;93.20;23.75;;;4.80;99.90;;;;;;5060336;28;20449;-39
2022/01/13 05:08:49;;;;;;;97.63;23.02;;;4.80;99.90;;;;;;5070756;28;20036;-39
2022/01/13 05:11:16;;;;;;;91.65;22.92;;;4.70;99.90;;;;;;5075553;28;20048;-40
2022/01/13 05:13:42;;;;;;;97.20;24.88;;;4.70;99.90;;;;;;5053591;28;20036;-40
2022/01/13 05:16:16;;;;;;;109.13;24.60;;;4.80;99.90;;;;;;5072077;28;20031;-40
2022/01/13 05:18:52;;;;;;;90.20;23.13;;;4.70;99.90;;;;;;5068642;28;20055;-40
2022/01/13 05:21:23;;;;;;;123.85;26.48;;;4.70;99.90;;;;;;5073028;28;20083;-39
2022/01/13 05:23:52;;;;;;;118.45;25.20;;;4.80;99.90;;;;;;5055173;28;20053;-40
2022/01/13 05:26:21;;;;;;;153.45;27.52;;;4.80;99.90;;;;;;5068057;28;20056;-40
2022/01/13 05:28:47;;;;;;;112.32;24.60;;;4.80;99.90;;;;;;5062321;28;20029;-39
2022/01/13 05:31:13;;;;;;;110.10;24.48;;;4.70;99.90;;;;;;5077290;28;20154;-41
2022/01/13 05:33:39;;;;;;;119.30;24.85;;;4.70;99.90;;;;;;5077437;28;20029;-40
2022/01/13 05:36:07;;;;;;;94.45;21.75;;;4.70;99.90;;;;;;5079854;28;20021;-39
2022/01/13 05:38:33;;;;;;;81.80;18.40;;;4.70;99.90;;;;;;5078309;28;20036;-39
2022/01/13 05:40:59;;;;;;;94.38;21.17;;;4.70;99.90;;;;;;5074444;28;20056;-39
2022/01/13 05:43:25;;;;;;;88.57;21.30;;;4.70;99.90;;;;;;5076285;28;20064;-41
2022/01/13 05:45:51;;;;;;;123.90;24.48;;;4.70;99.90;;;;;;5080273;28;20447;-40
2022/01/13 05:48:17;;;;;;;130.50;26.58;;;4.70;99.90;;;;;;5075433;28;20032;-39
2022/01/13 05:50:43;;;;;;;124.63;25.25;;;4.60;99.90;;;;;;5075524;28;20029;-40
2022/01/13 05:53:09;;;;;;;124.80;25.65;;;4.60;99.90;;;;;;5072382;28;20092;-40
2022/01/13 05:55:34;;;;;;;114.22;25.48;;;4.70;99.90;;;;;;5060631;28;20029;-40
2022/01/13 05:58:00;;;;;;;131.70;28.08;;;4.60;99.90;;;;;;5076320;28;20357;-39
2022/01/13 06:00:28;;;;;;;107.22;23.70;;;4.70;99.90;;;;;;5075601;28;20037;-40
2022/01/13 06:02:54;;;;;;;163.25;28.80;;;4.70;99.90;;;;;;5077956;28;20024;-39
2022/01/13 06:05:21;;;;;;;131.82;27.23;;;4.70;99.90;;;;;;5075556;28;20047;-40
2022/01/13 06:07:47;;;;;;;113.32;25.83;;;4.70;99.90;;;;;;5048387;28;20040;-39
2022/01/13 06:10:19;;;;;;;135.80;26.70;;;4.60;99.90;;;;;;5070986;28;20028;-40
2022/01/13 06:12:46;;;;;;;103.85;25.25;;;4.70;99.90;;;;;;5052170;28;20021;-40
2022/01/13 06:15:14;;;;;;;104.93;25.20;;;4.60;99.90;;;;;;5080058;28;20460;-40
2022/01/13 06:17:42;;;;;;;114.35;24.45;;;4.60;99.90;;;;;;5049882;28;20056;-39
2022/01/13 06:20:11;;;;;;;93.95;23.05;;;4.70;99.90;;;;;;5068747;28;20033;-41
2022/01/13 06:22:39;;;;;;;94.47;21.35;;;4.60;99.90;;;;;;5050858;28;20040;-40
2022/01/13 06:25:06;;;;;;;94.32;22.10;;;4.70;99.90;;;;;;5062659;28;20035;-40
2022/01/13 06:27:33;;;;;;;79.28;20.90;;;4.70;99.90;;;;;;5045039;28;20028;-40
2022/01/13 06:29:59;;;;;;;87.78;21.80;;;4.70;99.90;;;;;;5077611;28;20032;-40
2022/01/13 06:32:25;;;;;;;90.15;21.70;;;4.70;99.90;;;;;;5078612;28;20499;-39
2022/01/13 06:34:51;;;;;;;102.35;22.17;;;4.70;99.90;;;;;;5073106;28;20037;-39
2022/01/13 06:37:17;;;;;;;104.03;23.63;;;4.70;99.90;;;;;;5080907;28;20044;-39
2022/01/13 06:39:43;;;;;;;129.88;27.30;;;4.70;99.90;;;;;;5059096;28;20127;-39
2022/01/13 06:42:09;;;;;;;102.00;22.50;;;4.70;99.90;;;;;;5078153;28;20048;-40
2022/01/13 06:44:35;;;;;;;120.88;23.27;;;4.70;99.90;;;;;;5078997;28;20040;-39
2022/01/13 06:47:01;;;;;;;99.50;23.88;;;4.70;99.90;;;;;;5078430;28;20483;-39
2022/01/13 06:49:27;;;;;;;97.32;24.35;;;4.70;99.90;;;;;;5076275;28;20025;-39
2022/01/13 06:51:53;;;;;;;102.30;25.63;;;4.70;99.90;;;;;;5080695;28;20032;-39
2022/01/13 06:54:19;;;;;;;116.93;26.08;;;4.70;99.90;;;;;;5080614;28;20425;-39
2022/01/13 06:56:44;;;;;;;93.47;23.23;;;4.70;99.90;;;;;;5077636;28;20044;-41
2022/01/13 06:59:12;;;;;;;103.28;24.85;;;4.70;99.90;;;;;;5060256;28;20032;-40
2022/01/13 07:01:39;;;;;;;88.72;23.05;;;4.70;99.90;;;;;;5075425;28;20103;-41
2022/01/13 07:04:08;;;;;;;109.55;24.35;;;4.70;99.90;;;;;;5064523;28;20092;-39
2022/01/13 07:06:34;;;;;;;98.55;23.85;;;4.70;99.90;;;;;;5079170;28;20036;-39
2022/01/13 07:09:00;;;;;;;90.38;21.85;;;4.80;99.90;;;;;;5074315;28;20039;-40
2022/01/13 07:11:26;;;;;;;111.35;24.60;;;4.70;99.90;;;;;;5076140;28;20028;-40
2022/01/13 07:13:51;;;;;;;124.72;26.30;;;4.70;99.90;;;;;;5076616;28;20028;-40
2022/01/13 07:16:19;;;;;;;93.75;22.80;;;4.70;99.90;;;;;;5080924;28;20135;-40
2022/01/13 07:18:45;;;;;;;122.00;24.50;;;4.70;99.90;;;;;;5065199;28;20132;-40
2022/01/13 07:21:12;;;;;;;153.25;27.55;;;4.70;99.90;;;;;;5070410;28;20060;-40
2022/01/13 07:23:38;;;;;;;119.88;25.05;;;4.70;99.90;;;;;;5054554;28;20032;-40
2022/01/13 07:26:03;;;;;;;76.40;21.65;;;4.70;99.90;;;;;;5071920;28;20070;-40
2022/01/13 07:28:30;;;;;;;96.97;23.70;;;4.70;99.90;;;;;;5076895;28;20021;-41
2022/01/13 07:30:57;;;;;;;95.55;23.77;;;4.70;99.90;;;;;;5054142;28;20056;-41
2022/01/13 07:33:23;;;;;;;88.78;22.80;;;4.70;99.90;;;;;;5073915;28;20035;-40
2022/01/13 07:35:50;;;;;;;95.40;23.25;;;4.70;99.90;;;;;;5066027;28;20016;-40
2022/01/13 07:38:16;;;;;;;101.10;23.02;;;4.70;99.90;;;;;;5070458;28;20047;-40
2022/01/13 07:40:42;;;;;;;110.30;25.33;;;4.70;99.90;;;;;;5068056;28;20053;-41
2022/01/13 07:43:08;;;;;;;111.35;24.73;;;4.70;99.90;;;;;;5054161;28;20519;-41
2022/01/13 07:45:33;;;;;;;108.15;24.63;;;4.70;99.90;;;;;;5076650;28;20088;-41
2022/01/13 07:47:59;;;;;;;98.93;24.48;;;4.70;99.90;;;;;;5063968;28;20047;-40
2022/01/13 07:50:25;;;;;;;111.25;24.85;;;4.70;99.90;;;;;;5067210;28;20052;-40
2022/01/13 07:52:51;;;;;;;103.38;23.58;;;4.80;99.90;;;;;;5074838;28;20029;-40
2022/01/13 07:55:17;;;;;;;93.97;23.35;;;4.70;99.90;;;;;;5072889;28;20053;-41
2022/01/13 07:57:43;;;;;;;93.88;24.52;;;4.80;99.90;;;;;;5074561;28;20063;-43
2022/01/13 08:00:12;;;;;;;88.82;23.83;;;4.80;99.90;;;;;;5071483;28;20048;-42
2022/01/13 08:02:39;;;;;;;97.75;23.38;;;4.80;99.90;;;;;;5070266;28;20305;-41
2022/01/13 08:05:06;;;;;;;103.45;23.88;;;4.80;99.90;;;;;;5071578;28;20027;-42
2022/01/13 08:07:31;;;;;;;101.85;22.90;;;4.80;99.90;;;;;;5052675;28;20052;-40
2022/01/13 08:09:57;;;;;;;87.50;21.35;;;4.80;99.90;;;;;;5070408;28;20021;-41
2022/01/13 08:12:26;;;;;;;107.10;24.67;;;4.80;99.90;;;;;;5076144;28;20020;-40
2022/01/13 08:14:52;;;;;;;98.78;25.27;;;4.80;99.90;;;;;;5051957;28;20040;-41
2022/01/13 08:20:05;;;;;;;91.43;22.95;;;4.80;99.90;;;;;;5027917;28;20045;-42
2022/01/13 08:22:31;;;;;;;91.03;23.75;;;4.80;99.90;;;;;;5083896;28;20035;-43
2022/01/13 08:24:57;;;;;;;94.90;23.27;;;4.80;99.90;;;;;;5062185;28;20054;-41
2022/01/13 08:27:23;;;;;;;101.18;23.25;;;4.80;99.90;;;;;;5076407;28;20043;-45
2022/01/13 08:29:48;;;;;;;99.80;23.80;;;4.90;99.90;;;;;;5077984;28;20039;-45
2022/01/13 08:32:14;;;;;;;100.55;23.73;;;4.90;99.90;;;;;;5071972;28;20064;-41
2022/01/13 08:34:40;;;;;;;106.05;24.50;;;4.90;99.90;;;;;;5058920;28;20024;-46
2022/01/13 08:37:06;;;;;;;92.18;23.08;;;4.90;99.90;;;;;;5073850;28;20033;-41
2022/01/13 08:39:42;;;;;;;115.15;26.85;;;4.90;99.90;;;;;;5055008;28;20029;-41
2022/01/13 08:42:11;;;;;;;95.55;22.13;;;4.90;99.90;;;;;;5077547;28;20043;-40
2022/01/13 08:44:37;;;;;;;96.00;24.75;;;4.90;99.90;;;;;;5081344;28;20012;-41
2022/01/13 08:47:03;;;;;;;94.00;22.95;;;5.00;99.90;;;;;;5091759;28;20400;-41
2022/01/13 08:49:29;;;;;;;79.50;21.40;;;5.00;99.90;;;;;;5077593;28;20029;-42
2022/01/13 08:51:58;;;;;;;95.40;25.13;;;5.00;99.90;;;;;;5078198;28;20514;-40
2022/01/13 08:54:24;;;;;;;85.38;21.88;;;5.00;99.90;;;;;;5074109;28;20024;-40
2022/01/13 08:56:50;;;;;;;83.90;23.35;;;5.00;99.90;;;;;;5068469;28;20052;-41
2022/01/13 08:59:18;;;;;;;88.53;23.38;;;5.00;99.90;;;;;;5060956;28;20020;-41
2022/01/13 09:01:44;;;;;;;91.72;23.20;;;5.00;99.90;;;;;;5088321;28;20043;-40
2022/01/13 09:04:10;;;;;;;84.10;21.63;;;5.00;99.90;;;;;;5085672;28;20117;-41
2022/01/13 09:06:36;;;;;;;82.47;22.75;;;5.00;99.90;;;;;;5092580;28;20036;-40
2022/01/13 09:09:02;;;;;;;95.45;22.38;;;5.00;99.90;;;;;;5072717;28;20047;-40
2022/01/13 09:11:28;;;;;;;93.07;21.80;;;5.10;99.90;;;;;;5078397;28;20063;-40
2022/01/13 09:13:58;;;;;;;100.68;23.38;;;5.10;99.90;;;;;;5067997;28;20025;-41
2022/01/13 09:16:30;;;;;;;81.07;22.10;;;5.10;99.90;;;;;;5085000;28;20119;-40
2022/01/13 09:21:23;;;;;;;93.28;22.63;;;5.10;99.90;;;;;;5070759;28;20497;-41
2022/01/13 09:23:49;;;;;;;88.53;22.40;;;5.10;99.90;;;;;;5061344;28;20060;-40
2022/01/13 09:26:15;;;;;;;76.82;21.38;;;5.10;99.90;;;;;;5064560;28;20100;-41
2022/01/13 09:28:41;;;;;;;98.40;23.67;;;5.10;99.90;;;;;;5083333;28;20180;-40
2022/01/13 09:31:07;;;;;;;85.68;21.77;;;5.20;99.90;;;;;;5076734;28;20032;-39
2022/01/13 09:33:34;;;;;;;80.90;22.20;;;5.20;99.90;;;;;;5047885;28;20017;-40
2022/01/13 09:36:00;;;;;;;89.95;23.52;;;5.20;99.90;;;;;;5064170;28;20017;-41
2022/01/13 09:38:26;;;;;;;95.82;23.48;;;5.20;99.90;;;;;;5078263;28;20029;-39
2022/01/13 09:40:52;;;;;;;115.25;24.92;;;5.30;99.90;;;;;;5082178;28;20037;-40
2022/01/13 09:43:24;;;;;;;82.53;22.70;;;5.30;99.90;;;;;;5064334;28;20025;-42
2022/01/13 09:45:51;;;;;;;80.78;20.83;;;5.30;99.90;;;;;;5065327;28;20078;-39
2022/01/13 09:48:16;;;;;;;93.28;23.20;;;5.30;99.90;;;;;;5072480;28;20037;-39
2022/01/13 09:50:45;;;;;;;93.57;23.15;;;5.40;99.90;;;;;;5085311;28;20391;-40
2022/01/13 09:53:15;;;;;;;83.97;22.65;;;5.40;99.90;;;;;;5065230;28;20029;-40
2022/01/13 09:55:42;;;;;;;85.15;21.20;;;5.40;99.90;;;;;;5064799;28;20017;-40
2022/01/13 09:58:11;;;;;;;98.75;23.27;;;5.40;99.90;;;;;;5050858;28;20028;-39
2022/01/13 10:00:39;;;;;;;90.38;21.88;;;5.40;99.90;;;;;;5083670;28;20044;-39
2022/01/13 10:03:22;;;;;;;90.72;24.05;;;5.50;99.90;;;;;;5082867;28;20576;-39
2022/01/13 10:06:09;;;;;;;92.25;22.23;;;5.50;99.90;;;;;;5083227;28;20028;-44
2022/01/13 10:08:50;;;;;;;95.00;23.38;;;5.50;99.90;;;;;;5074153;28;20036;-39
2022/01/13 10:11:37;;;;;;;84.38;21.50;;;5.50;99.90;;;;;;5088020;28;20024;-39
2022/01/13 10:14:02;;;;;;;92.95;23.48;;;5.50;99.90;;;;;;5079955;28;20059;-39
2022/01/13 10:16:28;;;;;;;94.03;22.55;;;5.60;99.90;;;;;;5079988;28;20032;-39
2022/01/13 10:18:54;;;;;;;92.10;22.90;;;5.60;99.90;;;;;;5082097;28;20040;-39
2022/01/13 10:21:21;;;;;;;96.35;24.77;;;5.60;99.90;;;;;;5046314;28;20057;-39
2022/01/13 10:24:10;;;;;;;87.88;22.73;;;5.60;99.90;;;;;;5076315;28;20391;-39
2022/01/13 10:26:36;;;;;;;93.15;24.55;;;5.60;99.90;;;;;;5077364;28;20047;-39
2022/01/13 10:29:04;;;;;;;89.10;23.20;;;5.70;99.90;;;;;;5088894;28;20029;-39
2022/01/13 10:31:48;;;;;;;83.75;24.00;;;5.70;99.90;;;;;;5090791;28;20020;-39
2022/01/13 10:34:26;;;;;;;88.75;22.85;;;5.80;99.90;;;;;;5078150;28;20027;-39
2022/01/13 10:37:02;;;;;;;86.18;22.02;;;5.70;99.90;;;;;;5063992;28;20024;-40
2022/01/13 10:39:56;;;;;;;103.22;24.02;;;5.80;99.90;;;;;;5069725;28;20044;-40
2022/01/13 10:45:03;;;;;;;96.78;22.55;;;5.80;99.90;;;;;;5086980;28;20107;-39
2022/01/13 10:47:32;;;;;;;84.20;23.52;;;5.80;99.90;;;;;;5086640;28;20036;-40
2022/01/13 10:50:10;;;;;;;77.30;22.45;;;5.90;99.90;;;;;;5087420;28;20012;-40
2022/01/13 10:52:37;;;;;;;88.97;22.83;;;5.90;99.90;;;;;;5080223;28;20028;-40
2022/01/13 10:55:16;;;;;;;69.53;20.23;;;5.90;99.90;;;;;;5079882;28;20016;-42
2022/01/13 10:57:44;;;;;;;66.57;20.85;;;5.90;99.90;;;;;;5057360;28;20043;-40
2022/01/13 11:00:24;;;;;;;69.68;20.63;;;5.90;99.90;;;;;;5080377;28;20059;-40
2022/01/13 11:03:15;;;;;;;78.25;20.67;;;5.90;99.90;;;;;;5081366;28;20514;-43
2022/01/13 11:05:47;;;;;;;70.28;20.52;;;6.00;99.90;;;;;;5076730;28;20066;-40
2022/01/13 11:08:21;;;;;;;72.43;20.60;;;6.00;99.90;;;;;;5082234;28;20075;-41
2022/01/13 11:10:51;;;;;;;70.20;20.83;;;6.00;99.90;;;;;;5075530;28;20032;-41
2022/01/13 11:13:22;;;;;;;69.90;20.45;;;6.00;99.90;;;;;;5079987;28;20426;-42
2022/01/13 11:15:55;;;;;;;82.47;21.52;;;6.00;99.90;;;;;;5081185;28;20023;-40
2022/01/13 11:18:25;;;;;;;65.47;20.27;;;6.00;99.90;;;;;;5075157;28;20052;-42
2022/01/13 11:20:51;;;;;;;71.53;19.75;;;6.00;99.90;;;;;;5073379;28;20067;-40
2022/01/13 11:23:18;;;;;;;70.93;20.05;;;6.00;99.90;;;;;;5077356;28;20031;-41
2022/01/13 11:25:46;;;;;;;71.90;21.70;;;5.90;99.90;;;;;;5069345;28;20060;-40
2022/01/13 11:28:13;;;;;;;71.97;20.08;;;5.90;99.90;;;;;;5071218;28;20104;-40
2022/01/13 11:30:39;;;;;;;77.35;22.25;;;6.00;99.90;;;;;;5078874;28;20029;-40
2022/01/13 11:33:05;;;;;;;73.03;20.15;;;5.90;99.90;;;;;;5071890;28;20128;-40
2022/01/13 11:35:39;;;;;;;74.20;20.85;;;5.90;99.90;;;;;;5066949;28;20037;-40
2022/01/13 11:38:06;;;;;;;67.18;20.33;;;6.00;99.90;;;;;;5069948;28;20052;-40
2022/01/13 11:40:50;;;;;;;80.85;22.63;;;6.00;99.90;;;;;;5075460;28;20051;-41
2022/01/13 11:43:27;;;;;;;75.40;21.45;;;6.00;99.90;;;;;;5072428;28;20021;-40
2022/01/13 11:46:10;;;;;;;71.68;20.48;;;6.00;99.90;;;;;;5074805;28;20032;-40
2022/01/13 11:48:41;;;;;;;73.65;22.02;;;6.00;99.90;;;;;;5075971;28;20051;-40
2022/01/13 11:51:17;;;;;;;78.63;21.90;;;6.00;99.90;;;;;;5073335;28;20017;-42
2022/01/13 11:54:02;;;;;;;79.30;22.08;;;6.00;99.90;;;;;;5068160;28;20029;-40
2022/01/13 11:56:28;;;;;;;74.57;23.42;;;6.00;99.90;;;;;;5069103;28;20020;-40
2022/01/13 11:58:57;;;;;;;76.82;21.88;;;6.00;99.90;;;;;;5067482;28;20020;-41
2022/01/13 12:01:34;;;;;;;84.10;22.50;;;6.00;99.90;;;;;;5040990;28;20045;-40
2022/01/13 12:04:03;;;;;;;83.90;23.35;;;6.00;99.90;;;;;;5073229;28;20027;-40
2022/01/13 12:06:45;;;;;;;91.45;24.13;;;6.00;99.90;;;;;;5073173;28;20085;-40
2022/01/13 12:09:31;;;;;;;89.57;25.10;;;6.00;99.90;;;;;;5072747;28;20060;-40
2022/01/13 12:11:58;;;;;;;82.13;24.45;;;6.10;99.90;;;;;;5063512;28;20036;-40
2022/01/13 12:14:30;;;;;;;82.55;23.70;;;6.00;99.90;;;;;;5072678;28;20021;-40
2022/01/13 12:16:56;;;;;;;77.18;22.80;;;6.00;99.90;;;;;;5078099;28;20047;-40
2022/01/13 12:19:32;;;;;;;79.85;22.95;;;6.00;99.90;;;;;;5076664;28;20075;-40
2022/01/13 12:22:04;;;;;;;91.50;25.88;;;6.00;99.90;;;;;;5075966;28;20048;-40
2022/01/13 12:24:43;;;;;;;;;;;6.10;99.90;;;;;;5078765;28;20765;-40
2022/01/13 12:27:09;;;;;;;;;;;6.10;99.90;;;;;;5078669;28;19939;-40
2022/01/13 12:29:42;;;;;;;;;;;6.10;99.90;;;;;;5073212;28;20375;-40
2022/01/13 12:32:08;;;;;;;;;;;6.10;99.90;;;;;;5073310;28;19916;-40
2022/01/13 12:34:35;;;;;;;;;;;6.10;99.90;;;;;;5074078;28;19923;-40
2022/01/13 12:37:19;;;;;;;;;;;6.10;99.90;;;;;;5078469;28;20348;-41
2022/01/13 12:39:56;;;;;;;;;;;6.10;99.90;;;;;;5077144;28;19998;-40
2022/01/13 12:42:24;;;;;;;;;;;6.10;99.90;;;;;;5081082;28;19915;-40
2022/01/13 12:47:35;;;;;;;;;;;6.10;99.90;;;;;;5075126;28;20309;-40
2022/01/13 12:50:11;;;;;;;;;;;6.20;99.90;;;;;;5082816;28;19908;-40
2022/01/13 12:52:36;;;;;;;;;;;6.20;99.90;;;;;;5072824;28;19909;-42
2022/01/13 12:55:02;;;;;;;;;;;6.20;99.90;;;;;;5079404;28;20430;-40
2022/01/13 12:57:27;;;;;;;;;;;6.20;99.90;;;;;;5060846;28;19934;-40
2022/01/13 12:59:57;;;;;;;;;;;6.20;99.90;;;;;;5076585;28;19962;-39
2022/01/13 13:02:23;;;;;;;;;;;6.20;99.90;;;;;;5078121;28;19953;-39
2022/01/13 13:04:48;;;;;;;;;;;6.20;99.90;;;;;;5077007;28;19940;-40
2022/01/13 13:07:14;;;;;;;;;;;6.20;99.90;;;;;;5076351;28;19913;-40
2022/01/13 13:09:39;;;;;;;;;;;6.30;99.90;;;;;;5053513;28;19921;-40
2022/01/13 13:12:11;;;;;;;;;;;6.30;99.90;;;;;;5081742;28;20268;-40
2022/01/13 13:17:33;;;;;;;;;;;6.30;99.90;;;;;;5081150;28;20481;-40
2022/01/13 13:19:59;;;;;;;;;;;6.30;99.90;;;;;;5075998;28;19919;-40
2022/01/13 13:22:25;;;;;;;;;;;6.30;99.90;;;;;;5082426;28;19920;-40